sensor_id;sensor_type;location;lat;lon;timestamp;temperature;humidity
16128;DHT22;8168;49.036;7.690;2023-04-01T00:00:13;9.90;99.90
16128;DHT22;8168;49.036;7.690;2023-04-01T00:02:44;9.90;99.90
16128;DHT22;8168;49.036;7.690;2023-04-01T00:05:15;9.90;99.90
16128;DHT22;8168;49.036;7.690;2023-04-01T00:07:46;9.90;99.90
16128;DHT22;8168;49.036;7.690;2023-04-01T00:10:17;9.90;99.90
16128;DHT22;8168;49.036;7.690;2023-04-01T00:12:48;9.90;99.90
16128;DHT22;8168;49.036;7.690;2023-04-01T00:15:19;10.00;99.90
16128;DHT22;8168;49.036;7.690;2023-04-01T00:17:49;9.90;99.90
16128;DHT22;8168;49.036;7.690;2023-04-01T00:20:20;10.00;99.90
16128;DHT22;8168;49.036;7.690;2023-04-01T00:22:51;10.00;99.90
16128;DHT22;8168;49.036;7.690;2023-04-01T00:25:22;10.00;99.90
16128;DHT22;8168;49.036;7.690;2023-04-01T00:27:53;10.00;99.90
16128;DHT22;8168;49.036;7.690;2023-04-01T00:30:23;10.00;99.90
16128;DHT22;8168;49.036;7.690;2023-04-01T00:32:54;10.00;99.90
16128;DHT22;8168;49.036;7.690;2023-04-01T00:35:25;10.00;99.90
16128;DHT22;8168;49.036;7.690;2023-04-01T00:37:56;10.00;99.90
16128;DHT22;8168;49.036;7.690;2023-04-01T00:40:30;10.10;99.90
16128;DHT22;8168;49.036;7.690;2023-04-01T00:43:01;10.10;99.90
16128;DHT22;8168;49.036;7.690;2023-04-01T00:45:33;10.10;99.90
16128;DHT22;8168;49.036;7.690;2023-04-01T00:48:09;10.10;99.90
16128;DHT22;8168;49.036;7.690;2023-04-01T00:50:42;10.10;99.90
16128;DHT22;8168;49.036;7.690;2023-04-01T00:53:14;10.10;99.90
16128;DHT22;8168;49.036;7.690;2023-04-01T00:55:51;10.10;99.90
16128;DHT22;8168;49.036;7.690;2023-04-01T00:58:24;10.10;99.90
16128;DHT22;8168;49.036;7.690;2023-04-01T01:00:57;10.10;99.90
16128;DHT22;8168;49.036;7.690;2023-04-01T01:03:29;10.10;99.90
16128;DHT22;8168;49.036;7.690;2023-04-01T01:23:03;10.10;99.90
16128;DHT22;8168;49.036;7.690;2023-04-01T01:38:13;10.00;99.90
16128;DHT22;8168;49.036;7.690;2023-04-01T01:40:47;10.10;99.90
16128;DHT22;8168;49.036;7.690;2023-04-01T01:43:22;10.00;99.90
16128;DHT22;8168;49.036;7.690;2023-04-01T01:45:55;10.00;99.90
16128;DHT22;8168;49.036;7.690;2023-04-01T01:48:27;10.00;99.90
16128;DHT22;8168;49.036;7.690;2023-04-01T01:51:00;10.00;99.90
16128;DHT22;8168;49.036;7.690;2023-04-01T01:53:31;10.00;99.90
16128;DHT22;8168;49.036;7.690;2023-04-01T01:56:03;10.00;99.90
16128;DHT22;8168;49.036;7.690;2023-04-01T01:58:39;9.90;99.90
16128;DHT22;8168;49.036;7.690;2023-04-01T02:01:20;9.90;99.90
16128;DHT22;8168;49.036;7.690;2023-04-01T02:03:53;9.80;99.90
16128;DHT22;8168;49.036;7.690;2023-04-01T02:06:28;9.80;99.90
16128;DHT22;8168;49.036;7.690;2023-04-01T02:09:01;9.80;99.90
16128;DHT22;8168;49.036;7.690;2023-04-01T02:11:48;9.80;99.90
16128;DHT22;8168;49.036;7.690;2023-04-01T02:14:25;9.70;99.90
16128;DHT22;8168;49.036;7.690;2023-04-01T02:17:05;9.70;99.90
16128;DHT22;8168;49.036;7.690;2023-04-01T02:19:53;9.70;99.90
16128;DHT22;8168;49.036;7.690;2023-04-01T02:22:28;9.70;99.90
16128;DHT22;8168;49.036;7.690;2023-04-01T02:25:06;9.70;99.90
16128;DHT22;8168;49.036;7.690;2023-04-01T02:27:38;9.70;99.90
16128;DHT22;8168;49.036;7.690;2023-04-01T02:30:10;9.80;99.90
16128;DHT22;8168;49.036;7.690;2023-04-01T02:32:41;9.70;99.90
16128;DHT22;8168;49.036;7.690;2023-04-01T02:35:14;9.70;99.90
16128;DHT22;8168;49.036;7.690;2023-04-01T02:37:46;9.80;99.90
16128;DHT22;8168;49.036;7.690;2023-04-01T02:40:19;9.80;99.90
16128;DHT22;8168;49.036;7.690;2023-04-01T02:42:49;9.80;99.90
16128;DHT22;8168;49.036;7.690;2023-04-01T02:45:20;9.80;99.90
16128;DHT22;8168;49.036;7.690;2023-04-01T02:47:51;9.80;99.90
16128;DHT22;8168;49.036;7.690;2023-04-01T02:50:21;9.80;99.90
16128;DHT22;8168;49.036;7.690;2023-04-01T02:52:52;9.80;99.90
16128;DHT22;8168;49.036;7.690;2023-04-01T02:55:22;9.80;99.90
16128;DHT22;8168;49.036;7.690;2023-04-01T02:57:53;9.70;99.90
16128;DHT22;8168;49.036;7.690;2023-04-01T03:00:24;9.70;99.90
16128;DHT22;8168;49.036;7.690;2023-04-01T03:02:55;9.70;99.90
16128;DHT22;8168;49.036;7.690;2023-04-01T03:05:26;9.70;99.90
16128;DHT22;8168;49.036;7.690;2023-04-01T03:07:57;9.60;99.90
16128;DHT22;8168;49.036;7.690;2023-04-01T03:10:27;9.60;99.90
16128;DHT22;8168;49.036;7.690;2023-04-01T03:12:58;9.60;99.90
16128;DHT22;8168;49.036;7.690;2023-04-01T03:15:29;9.60;99.90
16128;DHT22;8168;49.036;7.690;2023-04-01T03:17:59;9.60;99.90
16128;DHT22;8168;49.036;7.690;2023-04-01T03:20:30;9.60;99.90
16128;DHT22;8168;49.036;7.690;2023-04-01T03:23:00;9.50;99.90
16128;DHT22;8168;49.036;7.690;2023-04-01T03:25:31;9.50;99.90
16128;DHT22;8168;49.036;7.690;2023-04-01T03:28:02;9.50;99.90
16128;DHT22;8168;49.036;7.690;2023-04-01T03:30:33;9.50;99.90
16128;DHT22;8168;49.036;7.690;2023-04-01T03:33:04;9.40;99.90
16128;DHT22;8168;49.036;7.690;2023-04-01T03:35:34;9.40;99.90
16128;DHT22;8168;49.036;7.690;2023-04-01T03:38:06;9.30;99.90
16128;DHT22;8168;49.036;7.690;2023-04-01T03:40:36;9.30;99.90
16128;DHT22;8168;49.036;7.690;2023-04-01T03:43:08;9.30;99.90
16128;DHT22;8168;49.036;7.690;2023-04-01T03:45:47;9.30;99.90
16128;DHT22;8168;49.036;7.690;2023-04-01T03:48:18;9.20;99.90
16128;DHT22;8168;49.036;7.690;2023-04-01T03:50:49;9.20;99.90
16128;DHT22;8168;49.036;7.690;2023-04-01T03:53:19;9.30;99.90
16128;DHT22;8168;49.036;7.690;2023-04-01T03:55:50;9.30;99.90
16128;DHT22;8168;49.036;7.690;2023-04-01T03:58:21;9.30;99.90
16128;DHT22;8168;49.036;7.690;2023-04-01T04:00:52;9.30;99.90
16128;DHT22;8168;49.036;7.690;2023-04-01T04:03:22;9.30;99.90
16128;DHT22;8168;49.036;7.690;2023-04-01T04:05:53;9.30;99.90
16128;DHT22;8168;49.036;7.690;2023-04-01T04:08:24;9.30;99.90
16128;DHT22;8168;49.036;7.690;2023-04-01T04:10:55;9.20;99.90
16128;DHT22;8168;49.036;7.690;2023-04-01T04:13:26;9.30;99.90
16128;DHT22;8168;49.036;7.690;2023-04-01T04:15:57;9.30;99.90
16128;DHT22;8168;49.036;7.690;2023-04-01T04:18:28;9.30;99.90
16128;DHT22;8168;49.036;7.690;2023-04-01T04:20:59;9.20;99.90
16128;DHT22;8168;49.036;7.690;2023-04-01T04:23:29;9.20;99.90
16128;DHT22;8168;49.036;7.690;2023-04-01T04:26:04;9.30;99.90
16128;DHT22;8168;49.036;7.690;2023-04-01T04:28:35;9.20;99.90
16128;DHT22;8168;49.036;7.690;2023-04-01T04:31:06;9.20;99.90
16128;DHT22;8168;49.036;7.690;2023-04-01T04:33:37;9.20;99.90
16128;DHT22;8168;49.036;7.690;2023-04-01T04:36:08;9.20;99.90
16128;DHT22;8168;49.036;7.690;2023-04-01T04:38:39;9.30;99.90
16128;DHT22;8168;49.036;7.690;2023-04-01T04:41:17;9.30;99.90
16128;DHT22;8168;49.036;7.690;2023-04-01T04:43:53;9.30;99.90
16128;DHT22;8168;49.036;7.690;2023-04-01T04:46:25;9.20;99.90
16128;DHT22;8168;49.036;7.690;2023-04-01T04:48:56;9.20;99.90
16128;DHT22;8168;49.036;7.690;2023-04-01T04:51:26;9.30;99.90
16128;DHT22;8168;49.036;7.690;2023-04-01T04:53:57;9.20;99.90
16128;DHT22;8168;49.036;7.690;2023-04-01T04:56:28;9.20;99.90
16128;DHT22;8168;49.036;7.690;2023-04-01T04:58:58;9.20;99.90
16128;DHT22;8168;49.036;7.690;2023-04-01T05:01:29;9.20;99.90
16128;DHT22;8168;49.036;7.690;2023-04-01T05:04:00;9.20;99.90
16128;DHT22;8168;49.036;7.690;2023-04-01T05:06:30;9.20;99.90
16128;DHT22;8168;49.036;7.690;2023-04-01T05:09:02;9.10;99.90
16128;DHT22;8168;49.036;7.690;2023-04-01T05:11:32;9.10;99.90
16128;DHT22;8168;49.036;7.690;2023-04-01T05:14:03;9.10;99.90
16128;DHT22;8168;49.036;7.690;2023-04-01T05:16:34;9.10;99.90
16128;DHT22;8168;49.036;7.690;2023-04-01T05:19:04;9.20;99.90
16128;DHT22;8168;49.036;7.690;2023-04-01T05:21:35;9.20;99.90
16128;DHT22;8168;49.036;7.690;2023-04-01T05:24:08;9.20;99.90
16128;DHT22;8168;49.036;7.690;2023-04-01T05:26:39;9.20;99.90
16128;DHT22;8168;49.036;7.690;2023-04-01T05:29:10;9.20;99.90
16128;DHT22;8168;49.036;7.690;2023-04-01T05:31:40;9.20;99.90
16128;DHT22;8168;49.036;7.690;2023-04-01T05:34:11;9.10;99.90
16128;DHT22;8168;49.036;7.690;2023-04-01T05:36:42;9.10;99.90
16128;DHT22;8168;49.036;7.690;2023-04-01T05:39:13;9.10;99.90
16128;DHT22;8168;49.036;7.690;2023-04-01T05:41:44;9.10;99.90
16128;DHT22;8168;49.036;7.690;2023-04-01T05:44:15;9.10;99.90
16128;DHT22;8168;49.036;7.690;2023-04-01T05:46:46;9.10;99.90
16128;DHT22;8168;49.036;7.690;2023-04-01T05:49:16;9.10;99.90
16128;DHT22;8168;49.036;7.690;2023-04-01T05:51:47;9.10;99.90
16128;DHT22;8168;49.036;7.690;2023-04-01T05:54:18;9.10;99.90
16128;DHT22;8168;49.036;7.690;2023-04-01T05:56:49;9.10;99.90
16128;DHT22;8168;49.036;7.690;2023-04-01T05:59:20;9.10;99.90
16128;DHT22;8168;49.036;7.690;2023-04-01T06:01:50;9.10;99.90
16128;DHT22;8168;49.036;7.690;2023-04-01T06:04:21;9.10;99.90
16128;DHT22;8168;49.036;7.690;2023-04-01T06:06:52;9.10;99.90
16128;DHT22;8168;49.036;7.690;2023-04-01T06:09:29;9.10;99.90
16128;DHT22;8168;49.036;7.690;2023-04-01T06:15:03;9.10;99.90
16128;DHT22;8168;49.036;7.690;2023-04-01T06:20:43;9.10;99.90
16128;DHT22;8168;49.036;7.690;2023-04-01T06:26:15;9.00;99.90
16128;DHT22;8168;49.036;7.690;2023-04-01T06:29:06;9.10;99.90
16128;DHT22;8168;49.036;7.690;2023-04-01T06:31:47;9.10;99.90
16128;DHT22;8168;49.036;7.690;2023-04-01T06:34:34;9.10;99.90
16128;DHT22;8168;49.036;7.690;2023-04-01T06:43:25;9.10;99.90
16128;DHT22;8168;49.036;7.690;2023-04-01T06:46:13;9.10;99.90
16128;DHT22;8168;49.036;7.690;2023-04-01T06:52:50;9.10;99.90
16128;DHT22;8168;49.036;7.690;2023-04-01T06:54:58;9.10;99.90
16128;DHT22;8168;49.036;7.690;2023-04-01T06:57:33;9.10;99.90
16128;DHT22;8168;49.036;7.690;2023-04-01T07:00:31;12.20;99.90
16128;DHT22;8168;49.036;7.690;2023-04-01T07:05:42;9.10;99.90
16128;DHT22;8168;49.036;7.690;2023-04-01T07:08:20;9.10;99.90
16128;DHT22;8168;49.036;7.690;2023-04-01T07:11:03;9.00;99.90
16128;DHT22;8168;49.036;7.690;2023-04-01T07:13:41;9.10;99.90
16128;DHT22;8168;49.036;7.690;2023-04-01T07:22:02;9.00;99.90
16128;DHT22;8168;49.036;7.690;2023-04-01T07:24:36;9.00;99.90
16128;DHT22;8168;49.036;7.690;2023-04-01T07:27:13;9.00;99.90
16128;DHT22;8168;49.036;7.690;2023-04-01T07:29:43;9.00;99.90
16128;DHT22;8168;49.036;7.690;2023-04-01T07:32:41;9.10;99.90
16128;DHT22;8168;49.036;7.690;2023-04-01T07:43:47;9.10;99.90
16128;DHT22;8168;49.036;7.690;2023-04-01T07:49:22;9.10;99.90
16128;DHT22;8168;49.036;7.690;2023-04-01T07:52:13;9.10;99.90
16128;DHT22;8168;49.036;7.690;2023-04-01T07:55:00;9.20;99.90
16128;DHT22;8168;49.036;7.690;2023-04-01T08:05:29;9.30;99.90
16128;DHT22;8168;49.036;7.690;2023-04-01T08:08:11;9.30;99.90
16128;DHT22;8168;49.036;7.690;2023-04-01T08:10:52;9.30;99.90
16128;DHT22;8168;49.036;7.690;2023-04-01T08:19:42;9.30;99.90
16128;DHT22;8168;49.036;7.690;2023-04-01T08:25:03;9.40;99.90
16128;DHT22;8168;49.036;7.690;2023-04-01T08:27:45;9.40;99.90
16128;DHT22;8168;49.036;7.690;2023-04-01T08:30:20;9.40;99.90
16128;DHT22;8168;49.036;7.690;2023-04-01T08:35:36;9.40;99.90
16128;DHT22;8168;49.036;7.690;2023-04-01T08:38:31;9.40;99.90
16128;DHT22;8168;49.036;7.690;2023-04-01T08:46:58;9.40;99.90
16128;DHT22;8168;49.036;7.690;2023-04-01T08:50:18;9.50;99.90
16128;DHT22;8168;49.036;7.690;2023-04-01T08:53:00;9.40;99.90
16128;DHT22;8168;49.036;7.690;2023-04-01T08:55:56;9.40;99.90
16128;DHT22;8168;49.036;7.690;2023-04-01T08:59:05;9.40;99.90
16128;DHT22;8168;49.036;7.690;2023-04-01T09:02:01;9.40;99.90
16128;DHT22;8168;49.036;7.690;2023-04-01T09:07:49;9.50;99.90
16128;DHT22;8168;49.036;7.690;2023-04-01T09:19:24;9.50;99.90
16128;DHT22;8168;49.036;7.690;2023-04-01T09:22:08;9.50;99.90
16128;DHT22;8168;49.036;7.690;2023-04-01T09:53:42;9.70;99.90
16128;DHT22;8168;49.036;7.690;2023-04-01T09:56:25;9.70;99.90
16128;DHT22;8168;49.036;7.690;2023-04-01T10:11:03;9.80;99.90
16128;DHT22;8168;49.036;7.690;2023-04-01T10:13:55;9.80;99.90
16128;DHT22;8168;49.036;7.690;2023-04-01T10:16:53;9.80;99.90
16128;DHT22;8168;49.036;7.690;2023-04-01T10:24:56;9.80;99.90
16128;DHT22;8168;49.036;7.690;2023-04-01T10:59:07;10.10;99.90
16128;DHT22;8168;49.036;7.690;2023-04-01T11:13:52;10.20;99.90
16128;DHT22;8168;49.036;7.690;2023-04-01T11:16:47;10.20;99.90
16128;DHT22;8168;49.036;7.690;2023-04-01T11:39:08;10.20;99.90
16128;DHT22;8168;49.036;7.690;2023-04-01T11:41:45;10.20;99.90
16128;DHT22;8168;49.036;7.690;2023-04-01T11:44:20;10.20;99.90
16128;DHT22;8168;49.036;7.690;2023-04-01T11:57:55;10.30;99.90
16128;DHT22;8168;49.036;7.690;2023-04-01T12:00:52;10.20;99.90
16128;DHT22;8168;49.036;7.690;2023-04-01T12:20:51;10.30;99.90
16128;DHT22;8168;49.036;7.690;2023-04-01T12:26:47;10.30;99.90
16128;DHT22;8168;49.036;7.690;2023-04-01T12:35:17;10.30;99.90
16128;DHT22;8168;49.036;7.690;2023-04-01T12:46:30;10.30;99.90
16128;DHT22;8168;49.036;7.690;2023-04-01T12:52:13;10.20;99.90
16128;DHT22;8168;49.036;7.690;2023-04-01T12:57:46;10.20;99.90
16128;DHT22;8168;49.036;7.690;2023-04-01T13:20:37;10.50;99.90
16128;DHT22;8168;49.036;7.690;2023-04-01T13:28:54;10.50;99.90
16128;DHT22;8168;49.036;7.690;2023-04-01T13:34:26;10.50;99.90
16128;DHT22;8168;49.036;7.690;2023-04-01T13:42:22;10.50;99.90
16128;DHT22;8168;49.036;7.690;2023-04-01T14:17:35;10.50;99.90
16128;DHT22;8168;49.036;7.690;2023-04-01T14:31:58;10.50;99.90
16128;DHT22;8168;49.036;7.690;2023-04-01T14:45:59;10.50;99.90
16128;DHT22;8168;49.036;7.690;2023-04-01T14:51:22;10.60;99.90
16128;DHT22;8168;49.036;7.690;2023-04-01T14:54:12;10.60;99.90
16128;DHT22;8168;49.036;7.690;2023-04-01T14:56:48;10.70;99.90
16128;DHT22;8168;49.036;7.690;2023-04-01T14:59:26;10.70;99.90
16128;DHT22;8168;49.036;7.690;2023-04-01T15:04:58;10.80;99.90
16128;DHT22;8168;49.036;7.690;2023-04-01T15:07:42;10.80;99.90
16128;DHT22;8168;49.036;7.690;2023-04-01T15:16:03;10.70;99.90
16128;DHT22;8168;49.036;7.690;2023-04-01T15:19:09;10.70;99.90
16128;DHT22;8168;49.036;7.690;2023-04-01T15:25:17;10.70;99.90
16128;DHT22;8168;49.036;7.690;2023-04-01T15:33:37;10.70;99.90
16128;DHT22;8168;49.036;7.690;2023-04-01T15:39:18;10.70;99.90
16128;DHT22;8168;49.036;7.690;2023-04-01T16:02:48;10.70;99.90
16128;DHT22;8168;49.036;7.690;2023-04-01T16:22:14;10.60;99.90
16128;DHT22;8168;49.036;7.690;2023-04-01T16:31:09;10.50;99.90
16128;DHT22;8168;49.036;7.690;2023-04-01T16:34:17;10.50;99.90
16128;DHT22;8168;49.036;7.690;2023-04-01T16:40:20;10.50;99.90
16128;DHT22;8168;49.036;7.690;2023-04-01T16:46:15;10.40;99.90
16128;DHT22;8168;49.036;7.690;2023-04-01T16:57:18;10.30;99.90
16128;DHT22;8168;49.036;7.690;2023-04-01T17:02:35;10.30;99.90
16128;DHT22;8168;49.036;7.690;2023-04-01T17:05:11;10.30;99.90
16128;DHT22;8168;49.036;7.690;2023-04-01T17:08:11;10.30;99.90
16128;DHT22;8168;49.036;7.690;2023-04-01T17:10:57;10.30;99.90
16128;DHT22;8168;49.036;7.690;2023-04-01T17:17:00;10.30;99.90
16128;DHT22;8168;49.036;7.690;2023-04-01T17:19:42;10.30;99.90
16128;DHT22;8168;49.036;7.690;2023-04-01T17:22:26;10.20;99.90
16128;DHT22;8168;49.036;7.690;2023-04-01T17:30:38;10.20;99.90
16128;DHT22;8168;49.036;7.690;2023-04-01T17:33:30;10.20;99.90
16128;DHT22;8168;49.036;7.690;2023-04-01T17:50:07;10.10;99.90
16128;DHT22;8168;49.036;7.690;2023-04-01T17:53:06;10.10;99.90
16128;DHT22;8168;49.036;7.690;2023-04-01T17:55:57;10.00;99.90
16128;DHT22;8168;49.036;7.690;2023-04-01T18:10:15;9.90;99.90
16128;DHT22;8168;49.036;7.690;2023-04-01T18:13:27;9.90;99.90
16128;DHT22;8168;49.036;7.690;2023-04-01T18:19:22;9.90;99.90
16128;DHT22;8168;49.036;7.690;2023-04-01T18:22:17;9.80;99.90
16128;DHT22;8168;49.036;7.690;2023-04-01T18:27:50;9.80;99.90
16128;DHT22;8168;49.036;7.690;2023-04-01T18:30:28;9.80;99.90
16128;DHT22;8168;49.036;7.690;2023-04-01T18:33:21;9.80;99.90
16128;DHT22;8168;49.036;7.690;2023-04-01T18:38:35;9.70;99.90
16128;DHT22;8168;49.036;7.690;2023-04-01T18:44:18;9.70;99.90
16128;DHT22;8168;49.036;7.690;2023-04-01T18:50:27;9.60;99.90
16128;DHT22;8168;49.036;7.690;2023-04-01T18:55:57;9.60;99.90
16128;DHT22;8168;49.036;7.690;2023-04-01T18:58:34;9.60;99.90
16128;DHT22;8168;49.036;7.690;2023-04-01T19:01:37;9.60;99.90
16128;DHT22;8168;49.036;7.690;2023-04-01T19:10:37;9.50;99.90
16128;DHT22;8168;49.036;7.690;2023-04-01T19:21:58;9.50;99.90
16128;DHT22;8168;49.036;7.690;2023-04-01T19:25:32;9.50;99.90
16128;DHT22;8168;49.036;7.690;2023-04-01T19:27:52;9.60;99.90
16128;DHT22;8168;49.036;7.690;2023-04-01T19:33:27;9.60;99.90
16128;DHT22;8168;49.036;7.690;2023-04-01T19:36:03;9.60;99.90
16128;DHT22;8168;49.036;7.690;2023-04-01T19:41:50;9.60;99.90
16128;DHT22;8168;49.036;7.690;2023-04-01T19:53:40;9.60;99.90
16128;DHT22;8168;49.036;7.690;2023-04-01T19:56:22;9.60;99.90
16128;DHT22;8168;49.036;7.690;2023-04-01T19:58:57;9.60;99.90
16128;DHT22;8168;49.036;7.690;2023-04-01T20:04:20;9.60;99.90
16128;DHT22;8168;49.036;7.690;2023-04-01T20:07:45;9.60;99.90
16128;DHT22;8168;49.036;7.690;2023-04-01T20:15:40;9.60;99.90
16128;DHT22;8168;49.036;7.690;2023-04-01T20:18:20;9.60;99.90
16128;DHT22;8168;49.036;7.690;2023-04-01T20:21:01;9.50;99.90
16128;DHT22;8168;49.036;7.690;2023-04-01T20:23:50;9.50;99.90
16128;DHT22;8168;49.036;7.690;2023-04-01T20:26:37;9.60;99.90
16128;DHT22;8168;49.036;7.690;2023-04-01T20:45:51;9.60;99.90
16128;DHT22;8168;49.036;7.690;2023-04-01T20:51:29;9.60;99.90
16128;DHT22;8168;49.036;7.690;2023-04-01T21:08:35;9.60;99.90
16128;DHT22;8168;49.036;7.690;2023-04-01T21:17:08;9.60;99.90
16128;DHT22;8168;49.036;7.690;2023-04-01T21:25:09;9.50;99.90
16128;DHT22;8168;49.036;7.690;2023-04-01T21:39:26;9.50;99.90
16128;DHT22;8168;49.036;7.690;2023-04-01T21:44:47;9.50;99.90
16128;DHT22;8168;49.036;7.690;2023-04-01T22:00:09;9.50;99.90
16128;DHT22;8168;49.036;7.690;2023-04-01T22:02:42;9.40;99.90
16128;DHT22;8168;49.036;7.690;2023-04-01T22:08:13;9.50;99.90
16128;DHT22;8168;49.036;7.690;2023-04-01T22:11:15;9.40;99.90
16128;DHT22;8168;49.036;7.690;2023-04-01T22:17:28;9.40;99.90
16128;DHT22;8168;49.036;7.690;2023-04-01T22:30:59;9.40;99.90
16128;DHT22;8168;49.036;7.690;2023-04-01T22:36:20;9.40;99.90
16128;DHT22;8168;49.036;7.690;2023-04-01T22:50:05;9.40;99.90
16128;DHT22;8168;49.036;7.690;2023-04-01T22:52:45;9.40;99.90
16128;DHT22;8168;49.036;7.690;2023-04-01T22:55:23;9.40;99.90
16128;DHT22;8168;49.036;7.690;2023-04-01T22:58:01;9.40;99.90
16128;DHT22;8168;49.036;7.690;2023-04-01T23:00:57;9.40;99.90
16128;DHT22;8168;49.036;7.690;2023-04-01T23:03:32;9.40;99.90
16128;DHT22;8168;49.036;7.690;2023-04-01T23:06:04;9.40;99.90
16128;DHT22;8168;49.036;7.690;2023-04-01T23:17:50;9.40;99.90
16128;DHT22;8168;49.036;7.690;2023-04-01T23:23:38;9.30;99.90
16128;DHT22;8168;49.036;7.690;2023-04-01T23:26:21;9.30;99.90
16128;DHT22;8168;49.036;7.690;2023-04-01T23:28:57;9.30;99.90
16128;DHT22;8168;49.036;7.690;2023-04-01T23:31:35;9.30;99.90
16128;DHT22;8168;49.036;7.690;2023-04-01T23:36:49;9.30;99.90
16128;DHT22;8168;49.036;7.690;2023-04-01T23:39:29;9.30;99.90
16128;DHT22;8168;49.036;7.690;2023-04-01T23:44:53;9.30;99.90
16128;DHT22;8168;49.036;7.690;2023-04-01T23:47:33;9.30;99.90
16128;DHT22;8168;49.036;7.690;2023-04-01T23:52:40;9.30;99.90
16128;DHT22;8168;49.036;7.690;2023-04-01T23:55:23;9.30;99.90
